Superstar Express — 3FFX9 — position and weather

sailwx.info

Track history (hours):
 
Tides and Currents Weather Stations Pressure Air Temp Water Temp Dewpoint Dewpoint Depression Visibility Wind Speed Wind Dir Waves Ship Positions

Superstar Express

Operator: P & O Irish Sea

Last reported at 2019-Nov-27 21:28 UTC. Time now 2019-Dec-12 08:20 UTC.
Position N 29°50' W 089°59'.
Warning: this ship's position is 14 days out of date.

Length 183 m; draft 11.6 m.

Type: Cargo ship. MMSI: 351360000.

Date/timePositionNaut miles runAvg speedWind from/ knotsBaromVisibWave heightAir tempDewpointWater temp
2019-Nov-27 21:28N 29°50' W 089°59'4 8.7
2019-Nov-27 21:00N 29°52' W 089°55'5 9.1
2019-Nov-27 20:30N 29°55' W 089°58'5 9.4
2019-Nov-27 19:59N 29°57' W 090°04'4 8.7
2019-Nov-27 19:30N 29°55' W 090°08'  
2019-Nov-24 16:50N 30°03' W 090°35'0 0.0
2019-Nov-24 14:29N 30°03' W 090°35'0 0.0
2019-Nov-24 12:29N 30°03' W 090°35'0 0.0
2019-Nov-24 11:59N 30°03' W 090°35'0 0.0
2019-Nov-24 08:29N 30°03' W 090°35'0 0.0
2019-Nov-24 06:29N 30°03' W 090°35'6 4.2
2019-Nov-24 04:59N 30°01' W 090°28'2 1.3
2019-Nov-24 03:30N 29°60' W 090°26'0 0.0
2019-Nov-24 03:00N 29°60' W 090°26'0 0.0
2019-Nov-24 00:59N 29°60' W 090°26'0 0.0
2019-Nov-23 23:59N 29°60' W 090°26'0 0.0
2019-Nov-23 23:29N 29°60' W 090°26'0 0.0
2019-Nov-23 21:59N 29°60' W 090°26'0 0.0
2019-Nov-23 17:26N 29°60' W 090°26'0 0.0
2019-Nov-23 15:29N 29°60' W 090°26'0 0.0
2019-Nov-23 13:00N 29°60' W 090°26'0 0.0
2019-Nov-23 12:29N 29°60' W 090°26'0 0.0
2019-Nov-23 09:59N 29°60' W 090°26'0 0.0
2019-Nov-23 09:29N 29°60' W 090°26'0 0.0
2019-Nov-23 07:00N 29°60' W 090°26'0 0.0
2019-Nov-23 03:59N 29°60' W 090°26'0 0.0
2019-Nov-23 03:25N 29°60' W 090°26'0 0.0
2019-Nov-23 02:56N 29°60' W 090°26'0 0.0
2019-Nov-23 01:29N 29°60' W 090°26'0 0.0
2019-Nov-23 00:27N 29°60' W 090°26'0 0.0
2019-Nov-22 23:59N 29°60' W 090°26'0 0.0
2019-Nov-22 22:26N 29°60' W 090°26'0 0.0
2019-Nov-22 21:29N 29°60' W 090°26'0 0.0
2019-Nov-22 19:59N 29°60' W 090°26'0 0.0
2019-Nov-22 19:29N 29°60' W 090°26'0 0.0
2019-Nov-22 17:29N 29°60' W 090°26'0 0.0
2019-Nov-22 15:59N 29°60' W 090°26'0 0.0
2019-Nov-22 14:59N 29°60' W 090°26'0 0.0
2019-Nov-22 14:17N 29°60' W 090°26'0 0.0
2019-Nov-22 13:29N 29°60' W 090°26'0 0.0
2019-Nov-22 11:59N 29°60' W 090°26'0 0.0
2019-Nov-22 10:59N 29°60' W 090°26'0 0.0
2019-Nov-22 08:56N 29°60' W 090°26'0 0.0
2019-Nov-22 08:29N 29°60' W 090°26'0 0.0
2019-Nov-22 07:29N 29°60' W 090°26'0 0.0
2019-Nov-22 06:59N 29°60' W 090°26'0 0.0
2019-Nov-22 05:59N 29°60' W 090°26'0 0.0
2019-Nov-22 03:20N 29°60' W 090°26'0 0.0
2019-Nov-22 02:29N 29°60' W 090°26'0 0.0
2019-Nov-21 23:29N 29°60' W 090°26'0 0.0
2019-Nov-21 19:26N 29°60' W 090°26'0 0.0
2019-Nov-21 17:59N 29°60' W 090°26'0 0.0
2019-Nov-21 16:59N 29°60' W 090°26'0 0.0
2019-Nov-21 15:56N 29°60' W 090°26'0 0.0
2019-Nov-21 15:29N 29°60' W 090°26'0 0.0
2019-Nov-21 10:23N 29°60' W 090°26'0 0.0
2019-Nov-21 09:59N 29°60' W 090°26'0 0.0
2019-Nov-21 08:56N 29°60' W 090°26'0 0.0
2019-Nov-21 07:29N 29°60' W 090°26'0 0.0
2019-Nov-21 05:29N 29°60' W 090°26'0 0.0
2019-Nov-21 03:29N 29°60' W 090°26'0 0.0
2019-Nov-21 01:29N 29°60' W 090°26'0 0.0
2019-Nov-21 00:14N 29°60' W 090°26'0 0.0
2019-Nov-20 22:44N 29°60' W 090°26'0 0.0
2019-Nov-20 21:41N 29°60' W 090°26'0 0.0
2019-Nov-20 12:35N 29°60' W 090°26'0 0.0
2019-Nov-20 11:59N 29°60' W 090°26'8 1.1
2019-Nov-20 04:30N 29°58' W 090°17'8 7.7
2019-Nov-20 03:30N 29°57' W 090°08'6 6.1
2019-Nov-20 02:30N 29°57' W 090°01'7 2.1
2019-Nov-19 23:16N 29°52' W 089°56'0 0.0
2019-Nov-19 22:22N 29°52' W 089°56'0 0.0
2019-Nov-19 20:58N 29°52' W 089°56'0 0.0
2019-Nov-19 18:22N 29°52' W 089°56'0 0.0
2019-Nov-19 14:25N 29°52' W 089°56'0 0.0
2019-Nov-19 13:28N 29°52' W 089°56'0 0.0
2019-Nov-19 10:46N 29°52' W 089°56'0 0.0
2019-Nov-19 08:58N 29°52' W 089°56'0 0.0
2019-Nov-19 06:49N 29°52' W 089°56'0 0.0
2019-Nov-19 04:13N 29°52' W 089°56'0 0.0
2019-Nov-18 23:10N 29°52' W 089°56'0 0.0
2019-Nov-18 22:25N 29°52' W 089°56'0 0.0
2019-Nov-18 20:25N 29°52' W 089°56'0 0.0
2019-Nov-18 19:58N 29°52' W 089°56'0 0.0
2019-Nov-18 19:28N 29°52' W 089°56'0 0.0
2019-Nov-18 15:55N 29°52' W 089°56'0 0.0
2019-Nov-18 15:28N 29°52' W 089°56'0 0.0
2019-Nov-18 12:58N 29°52' W 089°56'0 0.0
2019-Nov-18 12:25N 29°52' W 089°56'0 0.0
2019-Nov-18 10:55N 29°52' W 089°56'0 0.0
2019-Nov-18 09:28N 29°52' W 089°56'0 0.0
2019-Nov-18 05:28N 29°52' W 089°56'0 0.0
2019-Nov-18 04:34N 29°52' W 089°56'0 0.0
2019-Nov-18 03:49N 29°52' W 089°56'0 0.0
2019-Nov-18 02:52N 29°52' W 089°56'0 0.0
2019-Nov-18 01:37N 29°52' W 089°56'0 0.0
2019-Nov-17 23:16N 29°52' W 089°56'0 0.0
2019-Nov-17 22:55N 29°52' W 089°56'0 0.0
2019-Nov-17 21:58N 29°52' W 089°56'  
Track history (hours):
 
Tides and Currents Weather Stations Pressure Air Temp Water Temp Dewpoint Dewpoint Depression Visibility Wind Speed Wind Dir Waves Ship Positions

Superstar Express

Operator: P & O Irish Sea

Last reported at 2019-Nov-27 21:28 UTC. Time now 2019-Dec-12 08:20 UTC.
Position N 29°50' W 089°59'.
Warning: this ship's position is 14 days out of date.

Length 183 m; draft 11.6 m.

Type: Cargo ship. MMSI: 351360000.

Date/timePositionNaut miles runAvg speedWind from/ knotsBaromVisibWave heightAir tempDewpointWater temp
2019-Nov-27 21:28N 29°50' W 089°59'4 8.7
2019-Nov-27 21:00N 29°52' W 089°55'5 9.1
2019-Nov-27 20:30N 29°55' W 089°58'5 9.4
2019-Nov-27 19:59N 29°57' W 090°04'4 8.7
2019-Nov-27 19:30N 29°55' W 090°08'  
2019-Nov-24 16:50N 30°03' W 090°35'0 0.0
2019-Nov-24 14:29N 30°03' W 090°35'0 0.0
2019-Nov-24 12:29N 30°03' W 090°35'0 0.0
2019-Nov-24 11:59N 30°03' W 090°35'0 0.0
2019-Nov-24 08:29N 30°03' W 090°35'0 0.0
2019-Nov-24 06:29N 30°03' W 090°35'6 4.2
2019-Nov-24 04:59N 30°01' W 090°28'2 1.3
2019-Nov-24 03:30N 29°60' W 090°26'0 0.0
2019-Nov-24 03:00N 29°60' W 090°26'0 0.0
2019-Nov-24 00:59N 29°60' W 090°26'0 0.0
2019-Nov-23 23:59N 29°60' W 090°26'0 0.0
2019-Nov-23 23:29N 29°60' W 090°26'0 0.0
2019-Nov-23 21:59N 29°60' W 090°26'0 0.0
2019-Nov-23 17:26N 29°60' W 090°26'0 0.0
2019-Nov-23 15:29N 29°60' W 090°26'0 0.0
2019-Nov-23 13:00N 29°60' W 090°26'0 0.0
2019-Nov-23 12:29N 29°60' W 090°26'0 0.0
2019-Nov-23 09:59N 29°60' W 090°26'0 0.0
2019-Nov-23 09:29N 29°60' W 090°26'0 0.0
2019-Nov-23 07:00N 29°60' W 090°26'0 0.0
2019-Nov-23 03:59N 29°60' W 090°26'0 0.0
2019-Nov-23 03:25N 29°60' W 090°26'0 0.0
2019-Nov-23 02:56N 29°60' W 090°26'0 0.0
2019-Nov-23 01:29N 29°60' W 090°26'0 0.0
2019-Nov-23 00:27N 29°60' W 090°26'0 0.0
2019-Nov-22 23:59N 29°60' W 090°26'0 0.0
2019-Nov-22 22:26N 29°60' W 090°26'0 0.0
2019-Nov-22 21:29N 29°60' W 090°26'0 0.0
2019-Nov-22 19:59N 29°60' W 090°26'0 0.0
2019-Nov-22 19:29N 29°60' W 090°26'0 0.0
2019-Nov-22 17:29N 29°60' W 090°26'0 0.0
2019-Nov-22 15:59N 29°60' W 090°26'0 0.0
2019-Nov-22 14:59N 29°60' W 090°26'0 0.0
2019-Nov-22 14:17N 29°60' W 090°26'0 0.0
2019-Nov-22 13:29N 29°60' W 090°26'0 0.0
2019-Nov-22 11:59N 29°60' W 090°26'0 0.0
2019-Nov-22 10:59N 29°60' W 090°26'0 0.0
2019-Nov-22 08:56N 29°60' W 090°26'0 0.0
2019-Nov-22 08:29N 29°60' W 090°26'0 0.0
2019-Nov-22 07:29N 29°60' W 090°26'0 0.0
2019-Nov-22 06:59N 29°60' W 090°26'0 0.0
2019-Nov-22 05:59N 29°60' W 090°26'0 0.0
2019-Nov-22 03:20N 29°60' W 090°26'0 0.0
2019-Nov-22 02:29N 29°60' W 090°26'0 0.0
2019-Nov-21 23:29N 29°60' W 090°26'0 0.0
2019-Nov-21 19:26N 29°60' W 090°26'0 0.0
2019-Nov-21 17:59N 29°60' W 090°26'0 0.0
2019-Nov-21 16:59N 29°60' W 090°26'0 0.0
2019-Nov-21 15:56N 29°60' W 090°26'0 0.0
2019-Nov-21 15:29N 29°60' W 090°26'0 0.0
2019-Nov-21 10:23N 29°60' W 090°26'0 0.0
2019-Nov-21 09:59N 29°60' W 090°26'0 0.0
2019-Nov-21 08:56N 29°60' W 090°26'0 0.0
2019-Nov-21 07:29N 29°60' W 090°26'0 0.0
2019-Nov-21 05:29N 29°60' W 090°26'0 0.0
2019-Nov-21 03:29N 29°60' W 090°26'0 0.0
2019-Nov-21 01:29N 29°60' W 090°26'0 0.0
2019-Nov-21 00:14N 29°60' W 090°26'0 0.0
2019-Nov-20 22:44N 29°60' W 090°26'0 0.0
2019-Nov-20 21:41N 29°60' W 090°26'0 0.0
2019-Nov-20 12:35N 29°60' W 090°26'0 0.0
2019-Nov-20 11:59N 29°60' W 090°26'8 1.1
2019-Nov-20 04:30N 29°58' W 090°17'8 7.7
2019-Nov-20 03:30N 29°57' W 090°08'6 6.1
2019-Nov-20 02:30N 29°57' W 090°01'7 2.1
2019-Nov-19 23:16N 29°52' W 089°56'0 0.0
2019-Nov-19 22:22N 29°52' W 089°56'0 0.0
2019-Nov-19 20:58N 29°52' W 089°56'0 0.0
2019-Nov-19 18:22N 29°52' W 089°56'0 0.0
2019-Nov-19 14:25N 29°52' W 089°56'0 0.0
2019-Nov-19 13:28N 29°52' W 089°56'0 0.0
2019-Nov-19 10:46N 29°52' W 089°56'0 0.0
2019-Nov-19 08:58N 29°52' W 089°56'0 0.0
2019-Nov-19 06:49N 29°52' W 089°56'0 0.0
2019-Nov-19 04:13N 29°52' W 089°56'0 0.0
2019-Nov-18 23:10N 29°52' W 089°56'0 0.0
2019-Nov-18 22:25N 29°52' W 089°56'0 0.0
2019-Nov-18 20:25N 29°52' W 089°56'0 0.0
2019-Nov-18 19:58N 29°52' W 089°56'0 0.0
2019-Nov-18 19:28N 29°52' W 089°56'0 0.0
2019-Nov-18 15:55N 29°52' W 089°56'0 0.0
2019-Nov-18 15:28N 29°52' W 089°56'0 0.0
2019-Nov-18 12:58N 29°52' W 089°56'0 0.0
2019-Nov-18 12:25N 29°52' W 089°56'0 0.0
2019-Nov-18 10:55N 29°52' W 089°56'0 0.0
2019-Nov-18 09:28N 29°52' W 089°56'0 0.0
2019-Nov-18 05:28N 29°52' W 089°56'0 0.0
2019-Nov-18 04:34N 29°52' W 089°56'0 0.0
2019-Nov-18 03:49N 29°52' W 089°56'0 0.0
2019-Nov-18 02:52N 29°52' W 089°56'0 0.0
2019-Nov-18 01:37N 29°52' W 089°56'0 0.0
2019-Nov-17 23:16N 29°52' W 089°56'0 0.0
2019-Nov-17 22:55N 29°52' W 089°56'0 0.0
2019-Nov-17 21:58N 29°52' W 089°56'  

Dump ship's entire track history